Rechercher aéroport 
image banner adimage banner adimage banner ad
image banner ad

CL87 - Haddicks

Situé à City Of Industry, United States

ICAO - CL87, IATA -

Données fournies par Airmate  

Information générale

Coordonnées: N34°1'39" W117°58'0"
Élévation : 306 feet MSL.
Variation magnétique : 14° East
Voir autres Aéroports à California

Données opérationnelles

Special qualification required
Heure actuelle UTC:
Heure actuelle locale:
Météo à : KEMT - San Gabriel Valley ( 9 km )
METAR: KEMT 210045Z 19009KT 10SM CLR 29/11 A2988
Voir NOTAMs / SUP AIP / TFR affectant cet aéroport [VIEW]
Fréquences de communication: [VIEW]

Pistes:

Coordonnées de l'aéroport

Adresse: City Of Industry United States

Vue satellite de CL87